createdAt,value
2019-05-17T00:02:29.128Z,10.23
2019-05-17T00:09:14.059Z,11.73
2019-05-17T00:15:59.017Z,11.10
2019-05-17T00:22:46.914Z,12.43
2019-05-17T00:29:33.206Z,13.50
2019-05-17T00:36:18.205Z,13.50
2019-05-17T00:43:03.089Z,14.33
2019-05-17T00:49:48.739Z,14.17
2019-05-17T00:56:34.156Z,14.97
2019-05-17T01:03:21.088Z,13.73
2019-05-17T01:10:10.306Z,14.90
2019-05-17T01:16:56.487Z,15.53
2019-05-17T01:23:41.597Z,15.43
2019-05-17T01:30:26.745Z,15.43
2019-05-17T01:37:11.719Z,16.80
2019-05-17T01:43:56.986Z,15.37
2019-05-17T01:50:42.127Z,17.40
2019-05-17T01:57:27.538Z,18.00
2019-05-17T02:04:12.534Z,18.57
2019-05-17T02:10:57.534Z,18.03
2019-05-17T02:17:42.768Z,16.37
2019-05-17T02:24:27.627Z,17.83
2019-05-17T02:31:13.312Z,18.03
2019-05-17T02:37:58.511Z,18.43
2019-05-17T02:44:43.913Z,18.40
2019-05-17T02:51:28.973Z,18.53
2019-05-17T02:58:13.924Z,20.20
2019-05-17T03:04:58.882Z,19.60
2019-05-17T03:11:43.814Z,20.37
2019-05-17T03:18:33.063Z,20.73
2019-05-17T03:25:17.165Z,20.23
2019-05-17T03:32:08.831Z,19.37
2019-05-17T03:38:48.876Z,19.55
2019-05-17T03:45:34.311Z,20.17
2019-05-17T03:52:22.241Z,21.47
2019-05-17T03:59:05.960Z,21.20
2019-05-17T04:05:52.861Z,20.92
2019-05-17T04:12:38.091Z,20.60
2019-05-17T04:19:23.187Z,20.47
2019-05-17T04:26:08.139Z,21.43
2019-05-17T04:32:53.020Z,20.77
2019-05-17T04:39:37.960Z,20.03
2019-05-17T04:46:23.515Z,21.00
2019-05-17T04:53:08.873Z,18.80
2019-05-17T04:59:53.804Z,20.30
2019-05-17T05:06:38.760Z,17.30
2019-05-17T05:13:23.699Z,13.87
2019-05-17T05:20:09.021Z,12.83
2019-05-17T05:26:56.089Z,11.40
2019-05-17T05:33:41.943Z,10.57
2019-05-17T05:40:27.243Z,11.63
2019-05-17T05:47:13.182Z,12.18
2019-05-17T05:53:58.127Z,14.00
2019-05-17T06:00:43.364Z,13.70
2019-05-17T06:07:41.586Z,15.48
2019-05-17T06:14:25.394Z,15.20
2019-05-17T06:21:12.218Z,15.77
2019-05-17T06:27:56.922Z,14.15
2019-05-17T06:34:42.398Z,14.93
2019-05-17T06:41:28.358Z,14.60
2019-05-17T06:48:13.299Z,15.05
2019-05-17T06:54:58.798Z,14.30
2019-05-17T07:01:46.008Z,14.25
2019-05-17T07:08:31.666Z,14.15
2019-05-17T07:15:19.707Z,14.13
2019-05-17T07:22:04.629Z,12.10
2019-05-17T07:28:51.275Z,12.00
2019-05-17T07:35:36.327Z,11.68
2019-05-17T07:42:21.255Z,9.98
2019-05-17T07:49:06.122Z,10.45
2019-05-17T07:55:51.803Z,9.55
2019-05-17T08:02:36.749Z,7.65
2019-05-17T08:09:21.828Z,7.58
2019-05-17T08:16:06.691Z,7.65
2019-05-17T08:22:51.571Z,7.35
2019-05-17T08:29:36.442Z,7.20
2019-05-17T08:36:21.439Z,7.42
2019-05-17T08:43:06.306Z,7.10
2019-05-17T08:49:51.253Z,7.37
2019-05-17T08:56:37.259Z,7.42
2019-05-17T09:03:23.483Z,7.15
2019-05-17T09:10:10.373Z,7.22
2019-05-17T09:16:55.794Z,8.20
2019-05-17T09:23:40.769Z,7.72
2019-05-17T09:30:25.924Z,6.97
2019-05-17T09:37:10.923Z,7.95
2019-05-17T09:44:09.510Z,7.75
2019-05-17T09:50:43.007Z,7.33
2019-05-17T09:57:29.778Z,6.80
2019-05-17T10:04:14.732Z,6.75
2019-05-17T10:11:08.493Z,7.15
2019-05-17T10:17:46.337Z,7.35
2019-05-17T10:24:37.886Z,7.33
2019-05-17T10:31:19.746Z,7.27
2019-05-17T10:38:06.411Z,7.27
2019-05-17T10:44:54.282Z,7.90
2019-05-17T10:51:40.119Z,7.33
2019-05-17T10:58:24.663Z,6.87
2019-05-17T11:05:10.517Z,7.17
2019-05-17T11:11:55.792Z,7.40
2019-05-17T11:18:40.947Z,6.42
2019-05-17T11:25:26.005Z,6.53
2019-05-17T11:32:11.317Z,6.50
2019-05-17T11:38:56.686Z,6.00
2019-05-17T11:45:41.718Z,6.45
2019-05-17T11:52:26.641Z,6.25
2019-05-17T11:59:11.568Z,5.42
2019-05-17T12:05:56.563Z,5.73
2019-05-17T12:12:41.767Z,5.55
2019-05-17T12:19:27.675Z,5.10
2019-05-17T12:26:12.552Z,5.03
2019-05-17T12:32:57.419Z,4.67
2019-05-17T12:39:42.294Z,5.07
2019-05-17T12:46:27.248Z,4.30
2019-05-17T12:53:12.391Z,4.37
2019-05-17T12:59:57.271Z,4.00
2019-05-17T13:06:42.943Z,4.10
2019-05-17T13:13:28.147Z,3.35
2019-05-17T13:20:16.789Z,3.80
2019-05-17T13:27:02.326Z,3.95
2019-05-17T13:33:47.693Z,4.10
2019-05-17T13:40:39.354Z,3.85
2019-05-17T13:47:20.785Z,3.77
2019-05-17T13:54:05.893Z,3.50
2019-05-17T14:00:51.111Z,6.80
2019-05-17T14:07:36.032Z,3.75
2019-05-17T14:14:20.967Z,3.67
2019-05-17T14:21:05.975Z,3.70
2019-05-17T14:27:51.065Z,3.22
2019-05-17T14:34:35.999Z,3.17
2019-05-17T14:41:21.349Z,4.08
2019-05-17T14:48:06.275Z,3.30
2019-05-17T14:54:51.144Z,3.05
2019-05-17T15:01:36.098Z,2.55
2019-05-17T15:08:21.020Z,1.50
2019-05-17T15:15:07.241Z,1.72
2019-05-17T15:21:52.267Z,1.50
2019-05-17T15:28:37.232Z,1.57
2019-05-17T15:35:22.168Z,5.67
2019-05-17T15:42:07.198Z,4.90
2019-05-17T15:48:52.129Z,3.30
2019-05-17T15:55:37.058Z,2.30
2019-05-17T16:02:21.939Z,2.10
2019-05-17T16:09:07.214Z,2.10
2019-05-17T16:15:52.147Z,1.87
2019-05-17T16:22:37.271Z,1.70
2019-05-17T16:29:22.251Z,2.02
2019-05-17T16:36:07.208Z,2.25
2019-05-17T16:42:52.415Z,2.17
2019-05-17T16:49:37.751Z,2.37
2019-05-17T16:56:24.356Z,2.10
2019-05-17T17:03:09.454Z,2.07
2019-05-17T17:09:54.486Z,2.23
2019-05-17T17:16:39.520Z,1.98
2019-05-17T17:23:24.455Z,2.70
2019-05-17T17:30:30.240Z,2.30
2019-05-17T17:37:15.177Z,2.13
2019-05-17T17:44:00.043Z,2.40
2019-05-17T17:50:45.034Z,2.20
2019-05-17T17:57:29.908Z,2.23
2019-05-17T18:04:14.907Z,2.27
2019-05-17T18:10:59.796Z,2.20
2019-05-17T18:17:44.755Z,1.97
2019-05-17T18:24:29.680Z,2.40
2019-05-17T18:31:14.687Z,2.58
2019-05-17T18:37:59.703Z,2.40
2019-05-17T18:44:44.558Z,2.83
2019-05-17T18:51:29.424Z,2.80
2019-05-17T18:58:14.393Z,2.57
2019-05-17T19:04:59.311Z,2.27
2019-05-17T19:12:03.600Z,2.47
2019-05-17T19:18:49.387Z,2.40
2019-05-17T19:25:34.447Z,2.33
2019-05-17T19:32:19.496Z,2.90
2019-05-17T19:39:06.781Z,4.07
2019-05-17T19:45:51.861Z,2.60
2019-05-17T19:52:37.525Z,5.47
2019-05-17T19:59:22.521Z,5.13
2019-05-17T20:06:07.558Z,2.93
2019-05-17T20:12:52.766Z,2.80
2019-05-17T20:19:37.768Z,2.87
2019-05-17T20:26:23.795Z,3.52
2019-05-17T20:33:08.654Z,3.40
2019-05-17T20:39:54.680Z,3.53
2019-05-17T20:46:39.526Z,3.00
2019-05-17T20:53:24.394Z,3.20
2019-05-17T21:00:10.835Z,3.40
2019-05-17T21:06:55.727Z,4.70
2019-05-17T21:13:40.643Z,3.60
2019-05-17T21:20:25.571Z,3.80
2019-05-17T21:27:10.418Z,3.57
2019-05-17T21:33:55.267Z,4.73
2019-05-17T21:40:40.449Z,3.13
2019-05-17T21:47:25.628Z,3.40
2019-05-17T21:54:10.575Z,3.17
2019-05-17T22:01:04.351Z,2.90
2019-05-17T22:07:50.770Z,3.07
2019-05-17T22:14:35.663Z,3.43
2019-05-17T22:21:20.877Z,2.93
2019-05-17T22:28:05.984Z,3.50
2019-05-17T22:34:50.923Z,3.07
2019-05-17T22:41:35.819Z,3.67
2019-05-17T22:48:20.781Z,3.33
2019-05-17T22:55:09.035Z,3.63
2019-05-17T23:01:53.954Z,3.90
2019-05-17T23:08:38.855Z,3.80
2019-05-17T23:15:25.678Z,4.53
2019-05-17T23:22:10.720Z,4.90
2019-05-17T23:28:55.642Z,5.43
2019-05-17T23:35:40.631Z,4.70
2019-05-17T23:42:26.025Z,5.17
2019-05-17T23:49:11.722Z,4.97
2019-05-17T23:55:57.370Z,5.60
